Time;durP1;ratioP1;P1;durP2;ratioP2;P2;SDS_P1;SDS_P2;PMS_P1;PMS_P2;Temp;Humidity;BMP_temperature;BMP_pressure;BME280_temperature;BME280_humidity;BME280_pressure;Samples;Min_cycle;Max_cycle;Signal;HPM_P1;HPM_P2
2021/01/07 00:01:15;;;;;;;6.23;5.27;;;;;;;2.02;100.00;98454.19;4908360;28;103499;-76
2021/01/07 00:03:42;;;;;;;6.47;5.80;;;;;;;2.00;100.00;98455.97;4911412;28;102676;-76
2021/01/07 00:06:10;;;;;;;6.07;5.47;;;;;;;2.01;100.00;98455.06;4923865;28;103025;-75
2021/01/07 00:08:38;;;;;;;7.77;5.97;;;;;;;2.04;100.00;98452.34;4908383;28;103344;-76
2021/01/07 00:11:06;;;;;;;6.40;5.57;;;;;;;2.09;100.00;98458.19;4913060;28;105344;-75
2021/01/07 00:13:33;;;;;;;7.40;5.70;;;;;;;2.06;100.00;98451.38;4931431;28;102594;-76
2021/01/07 00:16:01;;;;;;;6.23;5.27;;;;;;;2.02;100.00;98452.38;4926912;28;103058;-76
2021/01/07 00:18:28;;;;;;;6.17;5.57;;;;;;;1.98;100.00;98453.44;4915726;28;102701;-75
2021/01/07 00:20:56;;;;;;;6.80;6.10;;;;;;;2.03;100.00;98454.09;4910864;28;111407;-76
2021/01/07 00:23:23;;;;;;;6.07;5.40;;;;;;;2.01;100.00;98452.47;4911710;28;103786;-76
2021/01/07 00:25:52;;;;;;;5.67;5.17;;;;;;;2.06;100.00;98453.97;4911231;28;102548;-76
2021/01/07 00:28:21;;;;;;;6.37;5.77;;;;;;;2.11;100.00;98456.38;4923803;28;102931;-76
2021/01/07 00:30:48;;;;;;;6.03;5.43;;;;;;;2.12;100.00;98447.66;4928570;28;103923;-76
2021/01/07 00:33:18;;;;;;;5.13;4.53;;;;;;;2.05;100.00;98454.88;4912571;28;106205;-76
2021/01/07 00:35:46;;;;;;;6.50;5.87;;;;;;;2.13;100.00;98449.34;4930394;28;102764;-76
2021/01/07 00:38:14;;;;;;;7.17;6.47;;;;;;;2.02;100.00;98462.81;4922350;28;102834;-75
2021/01/07 00:40:41;;;;;;;6.63;5.93;;;;;;;2.08;100.00;98461.72;4911796;28;102939;-76
2021/01/07 00:43:09;;;;;;;7.17;6.43;;;;;;;2.13;100.00;98449.34;4916065;28;103680;-75
2021/01/07 00:45:36;;;;;;;6.57;5.67;;;;;;;2.14;100.00;98454.50;4910745;28;102617;-76
2021/01/07 00:48:04;;;;;;;8.07;6.43;;;;;;;2.16;100.00;98454.44;4921230;28;104220;-77
2021/01/07 00:50:31;;;;;;;6.30;5.67;;;;;;;2.16;100.00;98457.06;4925672;28;105102;-75
2021/01/07 00:52:59;;;;;;;6.87;6.17;;;;;;;2.14;100.00;98458.84;4915375;28;103771;-75
2021/01/07 00:55:28;;;;;;;7.60;5.87;;;;;;;2.18;100.00;98455.22;4925573;28;103089;-77
2021/01/07 00:58:02;;;;;;;7.73;6.93;;;;;;;2.13;100.00;98450.19;4911553;28;103154;-75
2021/01/07 01:00:29;;;;;;;8.73;7.57;;;;;;;2.12;100.00;98450.25;4910352;28;105266;-76
2021/01/07 01:02:56;;;;;;;8.17;7.00;;;;;;;2.12;100.00;98458.06;4909218;28;105014;-76
2021/01/07 01:05:22;;;;;;;8.20;7.37;;;;;;;2.13;100.00;98454.56;4926675;28;103007;-76
2021/01/07 01:07:49;;;;;;;6.87;5.30;;;;;;;2.17;100.00;98451.75;4929276;28;102820;-75
2021/01/07 01:10:17;;;;;;;8.70;7.80;;;;;;;2.05;100.00;98456.66;4919850;28;103862;-75
2021/01/07 01:12:44;;;;;;;8.17;7.37;;;;;;;2.04;100.00;98455.81;4916904;28;103364;-76
2021/01/07 01:15:13;;;;;;;6.07;5.47;;;;;;;2.09;100.00;98448.63;4910617;28;102631;-75
2021/01/07 01:17:41;;;;;;;8.87;7.97;;;;;;;1.99;100.00;98456.91;4915131;28;102849;-75
2021/01/07 01:20:11;;;;;;;7.87;7.07;;;;;;;1.91;100.00;98449.38;4912144;28;105457;-75
2021/01/07 01:22:39;;;;;;;8.70;7.80;;;;;;;1.86;100.00;98453.09;4914680;28;103844;-75
2021/01/07 01:25:08;;;;;;;7.23;6.53;;;;;;;1.89;100.00;98464.25;4929801;28;103095;-75
2021/01/07 01:27:36;;;;;;;8.33;7.47;;;;;;;1.83;100.00;98461.03;4921391;28;103185;-75
2021/01/07 01:30:05;;;;;;;7.17;6.33;;;;;;;1.91;100.00;98458.97;4916513;28;103845;-76
2021/01/07 01:32:32;;;;;;;8.43;7.63;;;;;;;1.77;100.00;98466.53;4895094;28;106707;-75
2021/01/07 01:34:59;;;;;;;8.10;7.30;;;;;;;1.82;100.00;98461.97;4929886;28;102513;-75
2021/01/07 01:37:26;;;;;;;9.90;8.90;;;;;;;1.77;100.00;98468.19;4918531;28;103138;-76
2021/01/07 01:39:53;;;;;;;7.77;6.97;;;;;;;1.79;100.00;98459.47;4918611;28;104001;-76
2021/01/07 01:42:23;;;;;;;9.30;8.33;;;;;;;1.81;100.00;98462.84;4910106;28;103767;-76
2021/01/07 01:44:51;;;;;;;8.90;8.00;;;;;;;1.81;100.00;98468.06;4892053;28;102955;-75
2021/01/07 01:47:18;;;;;;;10.10;8.07;;;;;;;1.68;100.00;98467.75;4911083;28;102907;-75
2021/01/07 01:49:47;;;;;;;8.80;7.90;;;;;;;1.73;100.00;98461.44;4892532;28;104005;-75
2021/01/07 01:52:15;;;;;;;8.67;7.77;;;;;;;1.75;100.00;98467.41;4924956;28;103710;-76
2021/01/07 01:54:43;;;;;;;8.33;7.43;;;;;;;1.74;100.00;98468.31;4928041;28;103096;-75
2021/01/07 01:57:12;;;;;;;7.27;6.57;;;;;;;1.81;100.00;98466.31;4911234;28;103417;-75
2021/01/07 01:59:39;;;;;;;8.00;6.20;;;;;;;1.84;100.00;98465.34;4929294;28;105025;-75
2021/01/07 02:02:07;;;;;;;7.87;7.07;;;;;;;1.91;100.00;98464.19;4917579;28;103770;-76
2021/01/07 02:04:35;;;;;;;7.73;6.90;;;;;;;1.92;100.00;98460.66;4919563;28;102529;-75
2021/01/07 02:07:04;;;;;;;6.63;5.80;;;;;;;1.91;100.00;98464.19;4912302;28;103158;-75
2021/01/07 02:09:31;;;;;;;8.70;7.80;;;;;;;1.92;100.00;98461.50;4911098;28;104100;-76
2021/01/07 02:11:58;;;;;;;6.00;5.40;;;;;;;1.92;100.00;98463.25;4920063;28;104770;-75
2021/01/07 02:14:26;;;;;;;6.33;5.63;;;;;;;2.00;100.00;98463.78;4909551;28;102578;-75
2021/01/07 02:16:54;;;;;;;9.97;8.40;;;;;;;1.78;100.00;98456.03;4909701;28;103347;-75
2021/01/07 02:19:22;;;;;;;9.60;8.60;;;;;;;1.77;100.00;98461.31;4914311;28;104095;-75
2021/01/07 02:21:50;;;;;;;8.50;7.60;;;;;;;1.83;100.00;98466.25;4909496;28;103315;-75
2021/01/07 02:24:20;;;;;;;8.87;7.97;;;;;;;1.84;100.00;98467.94;4909055;28;102961;-75
2021/01/07 02:26:47;;;;;;;7.37;5.87;;;;;;;1.90;100.00;98470.31;4892544;28;102874;-75
2021/01/07 02:29:14;;;;;;;8.93;7.53;;;;;;;1.95;100.00;98471.81;4921456;28;103959;-75
2021/01/07 02:31:40;;;;;;;8.43;7.07;;;;;;;1.98;100.00;98465.63;4928407;28;103897;-75
2021/01/07 02:34:07;;;;;;;7.23;6.37;;;;;;;1.96;100.00;98467.44;4927774;28;103240;-75
2021/01/07 02:36:35;;;;;;;8.97;7.30;;;;;;;2.01;100.00;98463.75;4911979;28;105470;-75
2021/01/07 02:39:03;;;;;;;8.47;7.57;;;;;;;1.93;100.00;98460.63;4905831;28;105066;-79
2021/01/07 02:41:30;;;;;;;7.73;5.77;;;;;;;1.99;100.00;98468.19;4908603;28;103826;-75
2021/01/07 02:43:57;;;;;;;6.33;5.43;;;;;;;2.04;100.00;98455.81;4907584;28;102746;-75
2021/01/07 02:46:24;;;;;;;10.47;7.93;;;;;;;2.09;100.00;98461.66;4908735;28;102639;-75
2021/01/07 02:48:51;;;;;;;9.03;8.07;;;;;;;2.05;100.00;98462.69;4908753;28;103484;-76
2021/01/07 02:51:18;;;;;;;10.57;8.83;;;;;;;2.00;100.00;98463.78;4908227;28;104468;-75
2021/01/07 02:53:45;;;;;;;9.50;8.50;;;;;;;1.94;100.00;98461.47;4905703;28;103058;-75
2021/01/07 02:56:13;;;;;;;11.63;8.90;;;;;;;1.92;100.00;98460.66;4909011;28;102971;-75
2021/01/07 02:58:40;;;;;;;9.40;7.80;;;;;;;1.92;100.00;98461.50;4909244;28;103731;-75
2021/01/07 03:01:07;;;;;;;9.10;8.20;;;;;;;1.89;100.00;98460.78;4906796;28;103985;-75
2021/01/07 03:03:34;;;;;;;9.97;8.40;;;;;;;1.95;100.00;98461.38;4897755;28;102726;-75
2021/01/07 03:06:01;;;;;;;6.73;5.87;;;;;;;2.01;100.00;98455.06;4920746;28;103065;-75
2021/01/07 03:08:28;;;;;;;7.77;6.37;;;;;;;2.00;100.00;98454.22;4907192;28;103891;-75
2021/01/07 03:10:55;;;;;;;8.77;7.87;;;;;;;1.97;100.00;98456.09;4913369;28;103831;-75
2021/01/07 03:13:23;;;;;;;6.53;5.53;;;;;;;2.05;100.00;98460.09;4908993;28;102542;-75
2021/01/07 03:15:49;;;;;;;6.13;5.27;;;;;;;2.08;100.00;98456.50;4908865;28;102812;-76
2021/01/07 03:18:16;;;;;;;7.00;5.50;;;;;;;2.12;100.00;98458.06;4918887;28;104935;-76
2021/01/07 03:20:44;;;;;;;6.47;5.80;;;;;;;2.15;100.00;98457.94;4893803;28;104066;-75
2021/01/07 03:23:10;;;;;;;5.53;4.90;;;;;;;2.18;100.00;98450.00;4927889;28;102538;-75
2021/01/07 03:25:38;;;;;;;7.07;6.20;;;;;;;2.11;100.00;98441.59;4928987;28;102726;-75
2021/01/07 03:28:05;;;;;;;6.50;5.80;;;;;;;2.12;100.00;98458.94;4917254;28;103943;-75
2021/01/07 03:30:33;;;;;;;7.50;6.20;;;;;;;2.16;100.00;98451.84;4928019;28;102885;-75
2021/01/07 03:33:00;;;;;;;6.03;5.33;;;;;;;2.18;100.00;98450.00;4926727;28;102597;-75
2021/01/07 03:35:27;;;;;;;6.77;5.17;;;;;;;2.19;100.00;98449.09;4924441;28;103008;-75
2021/01/07 03:37:55;;;;;;;7.40;6.40;;;;;;;2.15;100.00;98450.13;4908661;28;104434;-74
2021/01/07 03:40:22;;;;;;;4.93;4.33;;;;;;;2.06;100.00;98442.69;4913055;28;103787;-75
2021/01/07 03:42:48;;;;;;;6.90;6.20;;;;;;;1.99;100.00;98444.72;4915399;28;102992;-75
2021/01/07 03:45:16;;;;;;;5.70;5.10;;;;;;;2.03;100.00;98433.25;4908711;28;103027;-75
2021/01/07 03:47:44;;;;;;;4.80;4.30;;;;;;;2.09;100.00;98442.56;4908503;28;103856;-75
2021/01/07 03:50:12;;;;;;;5.10;4.60;;;;;;;2.13;100.00;98433.72;4908348;28;104792;-75
2021/01/07 03:52:39;;;;;;;5.10;4.60;;;;;;;2.12;100.00;98440.69;4913576;28;103987;-77
2021/01/07 03:55:07;;;;;;;5.47;4.97;;;;;;;2.07;99.60;98428.75;4907994;28;103156;-76
2021/01/07 03:57:34;;;;;;;6.20;5.60;;;;;;;1.95;100.00;98432.72;4910211;28;105144;-76
2021/01/07 04:00:01;;;;;;;6.00;5.37;;;;;;;2.02;100.00;98426.34;4911860;28;104963;-76
2021/01/07 04:02:30;;;;;;;5.60;5.00;;;;;;;2.09;100.00;98429.53;4911130;28;103031;-75
2021/01/07 04:04:58;;;;;;;4.53;4.13;;;;;;;2.17;100.00;98430.06;4924908;28;105410;-75
2021/01/07 04:07:25;;;;;;;4.10;3.70;;;;;;;2.18;100.00;98431.75;4930102;28;103922;-75
2021/01/07 04:09:52;;;;;;;4.30;3.90;;;;;;;2.20;100.00;98424.72;4923841;28;103689;-76
2021/01/07 04:12:19;;;;;;;3.90;3.50;;;;;;;2.18;100.00;98429.16;4908642;28;102908;-75
2021/01/07 04:15:00;;;;;;;3.57;3.27;;;;;;;2.13;100.00;98428.50;4911465;28;103155;-75
2021/01/07 04:17:27;;;;;;;5.80;4.67;;;;;;;2.15;100.00;98431.88;4914874;28;103922;-75
2021/01/07 04:19:54;;;;;;;4.63;4.20;;;;;;;2.02;99.55;98441.97;4930206;28;103827;-76
2021/01/07 04:22:22;;;;;;;5.47;4.27;;;;;;;1.96;99.93;98439.66;4928634;28;103214;-75
2021/01/07 04:24:49;;;;;;;4.67;3.77;;;;;;;2.05;100.00;98433.19;4929949;28;103060;-76
2021/01/07 04:27:16;;;;;;;5.13;4.53;;;;;;;2.13;100.00;98428.50;4914046;28;103527;-75
2021/01/07 04:29:44;;;;;;;5.07;4.57;;;;;;;2.02;99.70;98428.13;4888667;28;104428;-74
2021/01/07 04:32:11;;;;;;;5.33;4.80;;;;;;;1.86;99.74;98429.66;4914413;28;102685;-77
2021/01/07 04:34:40;;;;;;;5.50;4.60;;;;;;;1.83;100.00;98432.38;4924631;28;102870;-76
2021/01/07 04:37:07;;;;;;;5.40;4.90;;;;;;;1.65;100.00;98428.78;4919190;28;105090;-76
2021/01/07 04:39:35;;;;;;;7.07;5.17;;;;;;;1.51;100.00;98439.78;4919025;28;103869;-75
2021/01/07 04:42:02;;;;;;;5.90;5.27;;;;;;;1.54;100.00;98429.22;4928679;28;104202;-75
2021/01/07 04:44:30;;;;;;;7.10;6.40;;;;;;;1.63;100.00;98434.03;4929094;28;103107;-76
2021/01/07 04:46:59;;;;;;;7.87;7.07;;;;;;;1.46;100.00;98441.69;4928463;28;103948;-75
2021/01/07 04:49:26;;;;;;;9.20;7.97;;;;;;;1.46;100.00;98435.66;4911379;28;113351;-77
2021/01/07 04:51:53;;;;;;;8.00;7.20;;;;;;;1.43;100.00;98434.00;4915770;28;103252;-76
2021/01/07 04:54:21;;;;;;;9.47;6.83;;;;;;;1.42;100.00;98440.13;4912987;28;103102;-76
2021/01/07 04:56:49;;;;;;;6.77;5.40;;;;;;;1.60;100.00;98441.97;4918430;28;104600;-76
2021/01/07 04:59:16;;;;;;;6.47;5.87;;;;;;;1.52;100.00;98438.84;4929128;28;108983;-80
2021/01/07 05:01:44;;;;;;;8.07;7.07;;;;;;;1.45;100.00;98433.94;4929299;28;102586;-75
2021/01/07 05:04:11;;;;;;;6.60;5.90;;;;;;;1.52;100.00;98436.25;4907769;28;102784;-75
2021/01/07 05:06:38;;;;;;;6.37;5.23;;;;;;;1.56;100.00;98437.81;4905546;28;106910;-76
2021/01/07 05:09:07;;;;;;;10.90;6.70;;;;;;;1.57;100.00;98433.47;4910277;28;104947;-79
2021/01/07 05:11:35;;;;;;;5.50;4.83;;;;;;;1.68;100.00;98436.47;4913215;28;102628;-76
2021/01/07 05:14:05;;;;;;;5.67;4.60;;;;;;;1.78;100.00;98437.78;4911279;28;103128;-75
2021/01/07 05:16:32;;;;;;;6.23;5.57;;;;;;;1.85;100.00;98433.19;4910072;28;104041;-75
2021/01/07 05:19:04;;;;;;;6.20;5.00;;;;;;;1.83;100.00;98437.59;4926071;28;105199;-75
2021/01/07 05:21:31;;;;;;;5.00;3.87;;;;;;;1.89;100.00;98434.72;4929149;28;102991;-76
2021/01/07 05:23:58;;;;;;;6.70;6.00;;;;;;;1.88;100.00;98435.66;4929724;28;102630;-75
2021/01/07 05:26:26;;;;;;;7.43;6.73;;;;;;;1.73;100.00;98432.78;4929328;28;103491;-75
2021/01/07 05:28:54;;;;;;;5.53;4.70;;;;;;;1.81;100.00;98437.66;4918075;28;104567;-75
2021/01/07 05:31:25;;;;;;;4.73;4.23;;;;;;;1.91;100.00;98438.16;4929568;28;103036;-76
2021/01/07 05:33:53;;;;;;;6.13;4.60;;;;;;;1.87;100.00;98441.78;4929378;28;103175;-75
2021/01/07 05:36:22;;;;;;;4.97;3.63;;;;;;;1.93;100.00;98434.56;4924222;28;103893;-77
2021/01/07 05:38:49;;;;;;;8.40;6.80;;;;;;;1.79;100.00;98436.88;4914565;28;104763;-79
2021/01/07 05:41:18;;;;;;;7.43;5.40;;;;;;;1.83;100.00;98434.97;4928626;28;102625;-78
2021/01/07 05:43:45;;;;;;;6.60;5.70;;;;;;;1.88;100.00;98433.06;4880089;28;103202;-78
2021/01/07 05:46:13;;;;;;;7.83;7.03;;;;;;;1.53;100.00;98432.72;4915219;28;104059;-78
2021/01/07 05:48:41;;;;;;;5.90;5.30;;;;;;;1.57;100.00;98434.28;4893166;28;103755;-78
2021/01/07 05:51:09;;;;;;;7.80;6.30;;;;;;;1.62;100.00;98432.38;4909973;28;103520;-78
2021/01/07 05:53:36;;;;;;;5.03;4.53;;;;;;;1.72;100.00;98433.69;4918485;28;102869;-78
2021/01/07 05:56:06;;;;;;;5.23;4.33;;;;;;;1.75;100.00;98433.56;4930320;28;104962;-81
2021/01/07 05:58:33;;;;;;;5.33;4.10;;;;;;;1.86;100.00;98434.84;4920079;28;102953;-75
2021/01/07 06:01:02;;;;;;;5.30;4.60;;;;;;;1.87;100.00;98431.34;4899621;28;103260;-77
2021/01/07 06:03:30;;;;;;;6.47;5.30;;;;;;;1.77;100.00;98424.84;4916790;28;104611;-79
2021/01/07 06:06:00;;;;;;;6.30;4.93;;;;;;;1.80;100.00;98424.72;4909423;28;104940;-78
2021/01/07 06:08:28;;;;;;;4.93;4.47;;;;;;;1.86;100.00;98429.66;4909655;28;103348;-76
2021/01/07 06:10:58;;;;;;;5.63;4.63;;;;;;;1.65;100.00;98434.84;4923769;28;102961;-82
2021/01/07 06:13:26;;;;;;;6.90;4.83;;;;;;;1.55;100.00;98430.91;4922224;28;103368;-79
2021/01/07 06:15:53;;;;;;;4.80;4.00;;;;;;;1.72;100.00;98431.06;4929015;28;105088;-78
2021/01/07 06:18:24;;;;;;;4.33;3.23;;;;;;;1.82;100.00;98430.69;4900198;28;104744;-73
2021/01/07 06:21:01;;;;;;;4.87;4.03;;;;;;;1.86;100.00;98437.47;4909482;28;102599;-75
2021/01/07 06:23:31;;;;;;;6.60;6.00;;;;;;;1.79;100.00;98439.50;4922146;28;103548;-78
2021/01/07 06:26:22;;;;;;;6.53;5.90;;;;;;;1.53;100.00;98430.13;4892358;28;108089;-75
2021/01/07 06:28:56;;;;;;;5.57;4.83;;;;;;;1.62;100.00;98439.34;4909188;28;104741;-78
2021/01/07 06:31:31;;;;;;;7.40;5.77;;;;;;;1.61;100.00;98430.66;4909810;28;102583;-74
2021/01/07 06:33:58;;;;;;;6.43;5.53;;;;;;;1.65;100.00;98432.25;4911064;28;103141;-75
2021/01/07 06:36:37;;;;;;;4.63;3.80;;;;;;;1.77;100.00;98430.06;4922839;28;103567;-84
2021/01/07 06:39:06;;;;;;;4.83;4.10;;;;;;;1.89;100.00;98429.53;4910721;28;104612;-76
2021/01/07 06:41:34;;;;;;;6.00;4.47;;;;;;;1.82;100.00;98434.16;4916053;28;103074;-78
2021/01/07 06:44:03;;;;;;;4.03;3.63;;;;;;;1.87;100.00;98427.00;4908238;28;103073;-77
2021/01/07 06:46:38;;;;;;;6.83;6.13;;;;;;;1.77;100.00;98430.06;4908506;28;103906;-76
2021/01/07 06:49:23;;;;;;;5.90;5.30;;;;;;;1.87;100.00;98441.78;4925587;28;103765;-76
2021/01/07 06:51:59;;;;;;;6.10;4.97;;;;;;;1.91;100.00;98445.97;4913028;28;103037;-76
2021/01/07 06:54:31;;;;;;;6.77;4.63;;;;;;;1.95;100.00;98442.28;4918677;28;102913;-76
2021/01/07 06:56:58;;;;;;;6.20;4.87;;;;;;;1.88;100.00;98451.28;4916662;28;103392;-76
2021/01/07 06:59:25;;;;;;;6.40;4.47;;;;;;;1.95;100.00;98455.31;4906660;28;103921;-74
2021/01/07 07:01:55;;;;;;;5.90;5.17;;;;;;;1.98;100.00;98463.00;4908175;28;103311;-76
2021/01/07 07:04:26;;;;;;;7.10;5.70;;;;;;;1.98;100.00;98444.78;4918280;28;102737;-74
2021/01/07 07:06:59;;;;;;;5.03;4.20;;;;;;;1.95;100.00;98455.31;4908277;28;104738;-75
2021/01/07 07:09:27;;;;;;;5.80;5.17;;;;;;;2.03;100.00;98453.25;4906213;28;103721;-75
2021/01/07 07:11:55;;;;;;;6.57;4.70;;;;;;;2.00;100.00;98455.97;4905818;28;102668;-75
2021/01/07 07:14:23;;;;;;;5.70;4.67;;;;;;;2.04;100.00;98452.34;4915526;28;102981;-75
2021/01/07 07:16:51;;;;;;;5.73;4.53;;;;;;;2.08;100.00;98457.34;4903082;28;104190;-75
2021/01/07 07:19:26;;;;;;;8.43;6.50;;;;;;;2.04;100.00;98457.56;4903857;28;103790;-75
2021/01/07 07:21:56;;;;;;;7.87;6.23;;;;;;;2.08;100.00;98461.72;4904241;28;103076;-74
2021/01/07 07:24:40;;;;;;;8.13;7.00;;;;;;;2.05;100.00;98462.69;4904897;28;103090;-74
2021/01/07 07:27:11;;;;;;;7.07;5.90;;;;;;;2.11;100.00;98465.03;4902405;28;104465;-74
2021/01/07 07:29:43;;;;;;;9.07;6.53;;;;;;;2.12;100.00;98463.28;4903531;28;103886;-74
2021/01/07 07:32:26;;;;;;;5.90;5.10;;;;;;;2.11;100.00;98464.19;4924711;28;102884;-74
2021/01/07 07:34:54;;;;;;;7.10;5.53;;;;;;;2.13;100.00;98465.00;4921985;28;105103;-75
2021/01/07 07:37:23;;;;;;;7.37;4.70;;;;;;;2.17;100.00;98466.53;4906668;28;104214;-75
2021/01/07 07:39:58;;;;;;;6.13;5.10;;;;;;;2.19;100.00;98470.78;4915376;28;106074;-75
2021/01/07 07:42:28;;;;;;;9.73;7.50;;;;;;;2.17;100.00;98466.53;4903151;28;102674;-74
2021/01/07 07:44:57;;;;;;;9.20;7.27;;;;;;;2.17;100.00;98471.75;4903688;28;102729;-75
2021/01/07 07:47:24;;;;;;;6.70;5.13;;;;;;;2.19;100.00;98469.94;4903874;28;104876;-75
2021/01/07 07:49:55;;;;;;;8.33;6.87;;;;;;;2.18;100.00;98468.25;4913203;28;103822;-74
2021/01/07 07:52:22;;;;;;;7.10;5.77;;;;;;;2.23;100.00;98467.13;4911333;28;102982;-75
2021/01/07 07:55:03;;;;;;;7.27;5.70;;;;;;;2.23;100.00;98466.28;4905628;28;104618;-74
2021/01/07 07:57:32;;;;;;;5.27;4.33;;;;;;;2.28;99.99;98469.53;4903578;28;104836;-75
2021/01/07 08:00:13;;;;;;;6.50;5.20;;;;;;;2.31;100.00;98474.63;4886246;28;105647;-74
2021/01/07 08:02:40;;;;;;;6.10;5.10;;;;;;;2.32;99.72;98471.13;4904062;28;102942;-74
2021/01/07 08:05:08;;;;;;;5.83;4.87;;;;;;;2.34;100.00;98480.56;4923619;28;103249;-74
2021/01/07 08:07:35;;;;;;;7.30;6.37;;;;;;;2.26;99.14;98484.41;4901446;28;105036;-75
2021/01/07 08:10:07;;;;;;;9.13;7.60;;;;;;;2.22;99.11;98482.81;4904087;28;104314;-79
2021/01/07 08:12:35;;;;;;;6.13;5.53;;;;;;;2.24;100.00;98484.47;4913812;28;103136;-77
2021/01/07 08:15:04;;;;;;;6.60;5.90;;;;;;;2.30;100.00;98488.59;4925182;28;103681;-73
2021/01/07 08:17:31;;;;;;;7.93;6.80;;;;;;;2.31;99.63;98490.25;4913243;28;104025;-73
2021/01/07 08:19:58;;;;;;;9.90;7.87;;;;;;;2.29;99.39;98486.88;4905990;28;104073;-75
2021/01/07 08:22:29;;;;;;;7.60;6.80;;;;;;;2.42;99.99;98487.19;4905805;28;102847;-75
2021/01/07 08:24:57;;;;;;;9.30;7.47;;;;;;;2.49;100.00;98494.72;4906279;28;102938;-75
2021/01/07 08:27:28;;;;;;;9.30;8.13;;;;;;;2.41;99.85;98491.59;4890231;28;103918;-74
2021/01/07 08:29:58;;;;;;;9.53;8.03;;;;;;;2.42;99.21;98495.88;4913677;28;104253;-78
2021/01/07 08:32:30;;;;;;;9.73;7.40;;;;;;;2.33;99.06;98504.06;4906832;28;103078;-87
2021/01/07 08:34:59;;;;;;;9.47;8.47;;;;;;;2.24;99.92;98501.88;4907996;28;103958;-78
2021/01/07 08:37:33;;;;;;;8.43;7.37;;;;;;;2.30;99.17;98497.22;4894055;28;106669;-80
2021/01/07 08:40:05;;;;;;;10.07;9.00;;;;;;;2.31;99.01;98500.69;4910946;28;105291;-80
2021/01/07 08:42:35;;;;;;;8.23;7.23;;;;;;;2.31;98.40;98505.91;4919738;28;102518;-76
2021/01/07 08:45:04;;;;;;;9.03;6.50;;;;;;;2.35;98.12;98504.88;4897414;28;102795;-80
2021/01/07 08:47:31;;;;;;;8.60;7.07;;;;;;;2.40;98.36;98508.13;4886531;28;103958;-80
2021/01/07 08:50:03;;;;;;;9.97;7.93;;;;;;;2.42;97.66;98508.06;4875486;28;104213;-78
2021/01/07 08:52:48;;;;;;;8.53;7.63;;;;;;;2.40;97.79;98505.53;4887909;28;102971;-86
2021/01/07 08:55:15;;;;;;;9.77;8.40;;;;;;;2.38;97.61;98506.50;4878898;28;103221;-82
2021/01/07 08:57:44;;;;;;;9.87;8.83;;;;;;;2.43;98.31;98513.22;4899810;28;104972;-88
2021/01/07 09:00:16;;;;;;;9.47;7.93;;;;;;;2.46;98.50;98505.28;5378843;23;104277;-89
2021/01/07 09:02:45;;;;;;;11.77;8.07;;;;;;;2.53;98.10;98496.25;5199800;22;104290;-79
2021/01/07 09:05:19;;;;;;;8.87;7.77;;;;;;;2.47;98.32;98501.72;5321023;22;105487;-78
2021/01/07 09:07:46;;;;;;;8.87;6.87;;;;;;;2.55;98.51;98496.19;4966957;28;105659;-77
2021/01/07 09:10:13;;;;;;;9.80;7.57;;;;;;;2.58;97.95;98499.53;4973932;28;104934;-89
2021/01/07 09:12:40;;;;;;;11.57;9.67;;;;;;;2.50;97.21;98499.00;4965192;28;103193;-76
2021/01/07 09:15:11;;;;;;;10.07;8.67;;;;;;;2.52;96.70;98496.34;4963748;28;103130;-74
2021/01/07 09:17:41;;;;;;;9.67;7.87;;;;;;;2.67;97.08;98493.91;4946471;28;105063;-76
2021/01/07 09:20:10;;;;;;;7.70;6.90;;;;;;;2.77;96.47;98503.03;4942438;28;104870;-76
2021/01/07 09:22:37;;;;;;;12.57;9.70;;;;;;;2.69;95.41;98499.91;4942486;28;102946;-77
2021/01/07 09:25:06;;;;;;;10.13;8.53;;;;;;;2.75;94.84;98506.63;4944206;28;103056;-74
2021/01/07 09:27:33;;;;;;;11.10;9.90;;;;;;;2.66;94.65;98502.66;4958133;28;103805;-73
2021/01/07 09:30:00;;;;;;;11.93;9.33;;;;;;;2.82;96.28;98508.03;4942892;28;105224;-76
2021/01/07 09:32:28;;;;;;;11.53;10.33;;;;;;;2.78;94.44;98512.53;4942428;28;102566;-76
2021/01/07 09:34:55;;;;;;;11.50;10.27;;;;;;;2.82;93.46;98508.88;4959262;28;103262;-75
2021/01/07 09:37:23;;;;;;;12.80;10.23;;;;;;;2.81;93.70;98504.56;4962616;28;104340;-75
2021/01/07 09:39:54;;;;;;;11.87;9.90;;;;;;;2.86;94.06;98505.22;4964229;28;103949;-79
2021/01/07 09:42:22;;;;;;;11.63;8.40;;;;;;;2.91;94.48;98508.47;4952927;28;103204;-76
2021/01/07 09:44:50;;;;;;;12.27;10.50;;;;;;;2.78;95.01;98506.47;4962457;28;103616;-78
2021/01/07 09:47:17;;;;;;;11.27;9.70;;;;;;;2.79;94.51;98514.22;4953271;28;103962;-77
2021/01/07 09:49:45;;;;;;;12.17;10.37;;;;;;;2.74;94.30;98504.91;4954656;28;104787;-78
2021/01/07 09:52:12;;;;;;;12.37;10.93;;;;;;;2.80;94.41;98510.72;4956023;28;103423;-79
2021/01/07 09:54:40;;;;;;;11.23;9.63;;;;;;;2.84;93.83;98507.03;4953343;28;103093;-78
2021/01/07 09:57:08;;;;;;;12.67;9.97;;;;;;;2.80;93.73;98505.50;4950602;28;103911;-77
2021/01/07 09:59:36;;;;;;;12.03;9.97;;;;;;;2.80;93.02;98508.13;4953927;28;103762;-77
2021/01/07 10:02:05;;;;;;;9.20;7.77;;;;;;;2.99;93.71;98500.31;4950662;28;102774;-77
2021/01/07 10:04:33;;;;;;;10.40;9.03;;;;;;;2.92;92.64;98507.53;4955185;28;102713;-78
2021/01/07 10:07:01;;;;;;;11.70;10.07;;;;;;;2.89;93.10;98502.47;4951427;28;104115;-76
2021/01/07 10:09:29;;;;;;;12.03;9.10;;;;;;;2.86;92.29;98502.59;4944303;28;103622;-79
2021/01/07 10:11:58;;;;;;;11.53;9.80;;;;;;;2.94;91.15;98494.44;4955890;28;102990;-79
2021/01/07 10:14:26;;;;;;;10.50;8.27;;;;;;;2.82;90.52;98498.44;4951657;28;102985;-88
2021/01/07 10:16:55;;;;;;;11.30;9.73;;;;;;;2.80;89.93;98500.28;4961644;28;103056;-76
2021/01/07 10:19:24;;;;;;;11.40;9.73;;;;;;;2.97;91.15;98501.28;4958247;28;103215;-78
2021/01/07 10:21:58;;;;;;;11.00;9.77;;;;;;;2.88;92.08;98497.31;4956769;28;103107;-79
2021/01/07 10:24:27;;;;;;;12.13;10.20;;;;;;;3.04;92.63;98503.53;4966181;28;102657;-76
2021/01/07 10:27:01;;;;;;;10.00;8.37;;;;;;;3.08;92.19;98499.03;4965400;28;103139;-77
2021/01/07 10:29:31;;;;;;;12.07;10.00;;;;;;;3.00;90.53;98501.16;4956387;28;105289;-77
2021/01/07 10:32:03;;;;;;;10.00;8.93;;;;;;;2.89;90.80;98499.84;4958535;28;103428;-80
2021/01/07 10:34:35;;;;;;;8.00;7.20;;;;;;;3.24;90.89;98484.38;4958450;28;103932;-80
2021/01/07 10:37:04;;;;;;;8.87;7.40;;;;;;;3.47;91.54;98497.22;4950963;28;104734;-79
2021/01/07 10:39:34;;;;;;;9.33;7.77;;;;;;;3.40;89.84;98495.78;4961001;28;104144;-78
2021/01/07 10:42:03;;;;;;;10.23;7.47;;;;;;;3.53;90.60;98491.69;4962725;28;103042;-79
2021/01/07 10:44:34;;;;;;;8.80;7.50;;;;;;;3.38;89.04;98481.97;4960265;28;105224;-78
2021/01/07 10:47:02;;;;;;;8.43;7.40;;;;;;;3.45;89.41;98478.97;4968339;28;104268;-78
2021/01/07 10:49:31;;;;;;;9.67;8.67;;;;;;;3.56;89.08;98475.88;4975036;28;103998;-77
2021/01/07 10:52:39;;;;;;;8.03;6.90;;;;;;;3.62;88.88;98472.94;4952170;28;103383;-78
2021/01/07 10:55:18;;;;;;;6.80;5.87;;;;;;;3.49;88.16;98469.25;4888969;28;103345;-78
2021/01/07 10:58:17;;;;;;;8.53;7.27;;;;;;;3.44;89.40;98469.47;4943364;28;105595;-78
2021/01/07 11:00:54;;;;;;;8.80;7.80;;;;;;;3.62;88.62;98462.50;4943192;28;105349;-77
2021/01/07 11:03:45;;;;;;;8.80;7.30;;;;;;;3.65;87.11;98470.19;4950992;28;103088;-78
2021/01/07 11:06:16;;;;;;;8.10;7.23;;;;;;;3.42;85.73;98460.00;4943549;28;103245;-80
2021/01/07 11:08:48;;;;;;;8.70;7.03;;;;;;;3.50;86.19;98458.75;4948607;28;105022;-79
2021/01/07 11:11:25;;;;;;;8.37;7.17;;;;;;;3.56;85.89;98452.38;4942230;28;103845;-79
2021/01/07 11:13:56;;;;;;;10.30;8.33;;;;;;;3.53;85.77;98449.91;4946937;28;103119;-79
2021/01/07 11:16:30;;;;;;;10.00;7.33;;;;;;;3.70;86.93;98442.09;4948048;28;103135;-78
2021/01/07 11:18:59;;;;;;;10.53;8.50;;;;;;;3.47;87.71;98452.81;4942998;28;104822;-77
2021/01/07 11:21:53;;;;;;;11.73;8.50;;;;;;;3.47;86.47;98440.59;4945116;28;104733;-78
2021/01/07 11:24:21;;;;;;;8.97;7.10;;;;;;;3.46;82.65;98438.03;4943765;28;103024;-77
2021/01/07 11:26:49;;;;;;;7.83;6.53;;;;;;;3.74;84.19;98433.19;4945896;28;102726;-89
2021/01/07 11:29:17;;;;;;;7.97;6.43;;;;;;;3.78;83.75;98426.03;4943483;28;103125;-78
2021/01/07 11:31:53;;;;;;;8.70;6.40;;;;;;;3.89;82.67;98421.97;4950378;28;104229;-78
2021/01/07 11:34:21;;;;;;;9.00;6.77;;;;;;;3.97;82.55;98419.81;4947067;28;103336;-77
2021/01/07 11:36:54;;;;;;;7.87;6.60;;;;;;;3.91;83.42;98414.03;4944635;28;103497;-78